Flugplatz Büllingen (EBBN)

Hier findest Du alle Informationen zum Flugplatz Büllingen (EBBN).

Informationen für Piloten zum Flugplatz Büllingen

Hier findest Du alle relevanten Informationen, die Du als Pilot benötigst, um Büllingen anzufliegen.

Flugplatz: Büllingen ICAO-Code: EBBN
Frequenz Turm: 123.400 Mhz GAFOR Gebiet: 37
Frequenz Ground: 123.400 Mhz Mogas: nein
Platzrunde: N 3000 ft Landegebühr: 0 €
Platzhöhe: Sunrise: 03:21 Uhr UTC
Pisten: 12/30 - 300 m x 30 m, GRAS Sunset: 19:52 Uhr UTC

Flugwetter am Flugplatz Büllingen

Die METAR Information stammen aus EDDK (79.10 km entfernt).

METAR Code:
2021/06/21 22:20
EDDK 212220Z 02005KT 350V070 9999 BKN022 16/12 Q1013 NOSIG

Flugschulen am Flugplatz Büllingen

Am Flugplatz Büllingen gibt es leider keine Flugschule.

Benachbarte Flugplätze und Flugschulen

Es gibt 6 weitere Flugplätze in einem Umkreis von 50 km um den Flugplatz Büllingen.

Jetzt anmelden

Passwort vergessen

Umfrage Archiv

Seid Ihr aufgrund von Corona im Jahr 2020 mehr oder weniger geflogen als im Jahr zuvor?

weniger
56.5 %
gleich viel
26.3 %
mehr
17.3 %
Stimmen: 255 | Diskussion
Anzeige: Roland Aircraft
Statistik Alle Mitglieder

Aktuell sind 40 Besucher online, davon 1 Mitglied und 39 Gäste.


Mitglieder online:
forester 

Anzeige: VFR Sprechfunk Simulator Anzeige: Pocket FMS